• Join FlightAware (Why Join?)
  • Login
  • US Flag 
07:11PM EDT


 

Airport Tracker/Info


-or-


 

Live Flight TrackerFlight Track Log ✈ ASQ6072 ✈ 28-Aug-2014 ✈ KIND - KORD

Flight Track Log - Related Links

Times and Time Zones

All times are in EDT time to prevent confusion due to time zone crossing. See the ASQ6072 flight status page for this flight to view local times or setup timezone preferences in your user account.

Time Position Orientation Groundspeed Altitude Reporting Facility
EDT Latitude Longitude Course Direction KTS MPH feet Rate Location/Type
08:12PM 39.7333 -86.2833 49° Northeast 148 170 1,600  Level Indianapolis TRACON
08:13PM 39.7833 -86.2167 42° Northeast 236 272 4,400 2,040 Climbing Indianapolis TRACON
08:14PM 39.7989 -86.1950 47° Northeast 212 244 5,700 2,400 Climbing Indianapolis Center
08:15PM 40.0738 -86.5406 44° Northeast  Level Estimated
08:15PM 39.8564 -86.1706 18° North 222 255 8,400  Level Indianapolis Center
08:16PM 40.1542 -86.0889 46° Northeast  Level FlightAware Approximate
08:16PM 39.9358 -86.1586 North 239 275 10,400  Level Indianapolis Center
08:17PM 40.2252 -85.9956 49° Northeast  Level FlightAware Approximate
08:17PM 40.0175 -86.1456 North 286 329 12,000  Level Indianapolis Center
08:18PM 40.1075 -86.1319 North 319 367 13,000 780 Climbing Indianapolis Center
08:19PM 40.2106 -86.1178 North 361 415 13,700 780 Climbing Indianapolis Center
08:20PM 40.3192 -86.1031 North 385 443 14,600 900 Climbing Chicago Center
08:21PM 40.4122 -86.1719 331° Northwest 388 447 15,600 960 Climbing Chicago Center
08:22PM 40.4983 -86.2619 322° Northwest 396 456 16,700 1,080 Climbing Chicago Center
08:23PM 40.6000 -86.3697 321° Northwest 396 456 17,900 540 Climbing Chicago Center
08:24PM 40.6864 -86.4608 321° Northwest 397 457 17,900  Level Chicago Center
08:25PM 40.7644 -86.5464 320° Northwest 397 457 18,000  Climbing Chicago Center
08:26PM 40.8497 -86.6372 321° Northwest 395 455 17,900 -600 Descending Chicago Center
08:27PM 40.9500 -86.7450 321° Northwest 399 459 16,800 -1,200 Descending Chicago Center
08:28PM 41.0461 -86.8439 322° Northwest 393 452 15,500 -1,200 Descending Chicago Center
08:29PM 41.1272 -86.9347 320° Northwest 385 443 14,400 -1,200 Descending Chicago Center
08:30PM 41.2136 -87.0275 321° Northwest 371 427 13,100 -1,320 Descending Chicago Center
08:31PM 41.2911 -87.1125 321° Northwest 366 421 11,700 -1,020 Descending Chicago Center
08:32PM 41.3719 -87.2011 321° Northwest 351 404 11,000 -360 Descending Chicago Center
08:33PM 41.4422 -87.2858 318° Northwest 345 397 11,000  Level Chicago Center
08:34PM 41.5133 -87.3678 319° Northwest 341 392 11,000  Level Chicago Center
08:35PM 41.5989 -87.4439 326° Northwest 341 392 11,000  Level Chicago Center
08:36PM 41.6822 -87.5244 324° Northwest 343 395 11,000  Level Chicago Center
08:37PM 41.7533 -87.6067 319° Northwest 343 395 11,000 -540 Level Chicago Center
08:38PM 41.8197 -87.6806 320° Northwest 282 325 9,900 -1,380 Descending Chicago Center
08:39PM 41.8639 -87.7594 307° West 263 303 8,200 -1,440 Descending Chicago Center
08:41PM 41.8769 -87.8575 280° West 254 292 7,000 -600 Descending Chicago Center
08:42PM 41.8822 -87.9503 274° West 252 290 7,000 -540 Level Chicago Center
08:43PM 41.8847 -88.0339 272° West 210 242 5,900 -1,320 Descending Chicago Center
08:44PM 41.8847 -88.1189 270° West 225 259 4,300 -960 Descending Chicago Center
08:45PM 41.9425 -88.1281 353° North 233 268 4,000 -720 Descending Chicago Center
08:46PM 41.9656 -88.0589 66° East 203 234 2,900 -1,140 Descending Chicago Center
08:47PM 41.9656 -88.0003 90° East 145 167 1,700 -960 Descending Chicago Center
08:48PM 41.9658 -87.9503 90° East 135 155 1,000 -720 Descending Chicago Center
08:50PM 41.9667 -87.9000 124° Southeast  Level FlightAware Approximate